Time;durP1;ratioP1;P1;durP2;ratioP2;P2;SDS_P1;SDS_P2;PMS_P1;PMS_P2;Temp;Humidity;BMP_temperature;BMP_pressure;BME280_temperature;BME280_humidity;BME280_pressure;Samples;Min_cycle;Max_cycle;Signal;HPM_P1;HPM_P2
2023/03/28 00:00:43;;;;;;;;;3.00;2.00;;;;;10.03;58.52;101977.19;4847256;29;45446;-82
2023/03/28 00:03:13;;;;;;;;;3.00;3.00;;;;;9.99;56.58;101976.19;4832279;29;47034;-82
2023/03/28 00:05:40;;;;;;;;;2.00;2.00;;;;;10.05;56.56;101983.47;4832530;29;45481;-82
2023/03/28 00:08:06;;;;;;;;;2.00;2.00;;;;;9.96;56.69;101976.09;4829582;29;45750;-81
2023/03/28 00:10:32;;;;;;;;;3.00;3.00;;;;;9.95;57.63;101976.03;4850552;29;45305;-82
2023/03/28 00:12:57;;;;;;;;;3.00;3.00;;;;;9.95;56.35;101982.22;4833607;29;46846;-82
2023/03/28 00:15:24;;;;;;;;;2.67;1.00;;;;;9.94;57.96;101990.19;4848684;29;45461;-81
2023/03/28 00:17:51;;;;;;;;;3.67;3.67;;;;;9.93;58.74;101985.69;4849977;29;45462;-82
2023/03/28 00:20:17;;;;;;;;;5.67;3.00;;;;;9.96;58.24;101991.13;4849223;29;45536;-81
2023/03/28 00:22:43;;;;;;;;;3.33;2.33;;;;;9.97;58.96;101984.97;4848832;29;45554;-81
2023/03/28 00:25:08;;;;;;;;;6.00;3.33;;;;;10.01;59.25;101981.56;4832136;29;45530;-81
2023/03/28 00:27:35;;;;;;;;;3.00;3.00;;;;;10.00;59.08;101975.34;4850428;29;45468;-81
2023/03/28 00:30:03;;;;;;;;;7.00;3.67;;;;;10.09;58.06;101974.75;4850836;29;45819;-81
2023/03/28 00:32:29;;;;;;;;;2.00;2.00;;;;;9.94;57.18;101974.22;4849711;29;45510;-82
2023/03/28 00:34:55;;;;;;;;;5.00;3.00;;;;;9.88;57.46;101974.00;4833707;29;46297;-81
2023/03/28 00:37:21;;;;;;;;;2.67;2.67;;;;;9.90;55.55;101972.31;4848274;29;45993;-82
2023/03/28 00:39:50;;;;;;;;;2.67;2.67;;;;;9.89;56.08;101978.47;4848827;29;45545;-82
2023/03/28 00:42:21;;;;;;;;;3.67;2.00;;;;;9.96;57.44;101967.22;4833280;29;47423;-82
2023/03/28 00:44:48;;;;;;;;;3.00;2.00;;;;;9.89;57.81;101974.03;4849637;29;45785;-82
2023/03/28 00:47:26;;;;;;;;;2.67;2.00;;;;;10.07;56.91;101973.81;4832530;29;45460;-81
2023/03/28 00:50:33;;;;;;;;;3.33;1.67;;;;;10.05;56.63;101988.78;4847869;29;45429;-82
2023/03/28 00:53:09;;;;;;;;;2.00;2.00;;;;;10.07;58.91;101986.19;4848947;29;45359;-81
2023/03/28 00:55:34;;;;;;;;;3.00;3.00;;;;;9.96;58.43;101988.47;4833702;29;45723;-81
2023/03/28 00:58:03;;;;;;;;;6.33;4.00;;;;;10.11;58.85;101977.47;4850461;29;45592;-81
2023/03/28 01:00:29;;;;;;;;;2.33;2.33;;;;;10.01;59.20;101973.59;4850401;29;45455;-81
2023/03/28 01:02:57;;;;;;;;;2.00;2.00;;;;;10.13;59.37;101983.75;4850598;29;46039;-81
2023/03/28 01:05:28;;;;;;;;;4.33;2.00;;;;;10.30;59.82;101984.38;4849071;29;45416;-82
2023/03/28 01:08:08;;;;;;;;;2.00;1.00;;;;;10.25;58.85;101968.25;4856987;29;45516;-81
2023/03/28 01:10:34;;;;;;;;;2.00;2.00;;;;;10.09;57.83;101974.75;4848671;29;45491;-82
2023/03/28 01:13:03;;;;;;;;;3.00;3.00;;;;;10.24;59.21;101973.50;4850806;29;46250;-82
2023/03/28 01:15:29;;;;;;;;;3.33;3.33;;;;;10.15;59.52;101971.44;4851787;29;45523;-82
2023/03/28 01:18:01;;;;;;;;;3.00;3.00;;;;;10.23;58.92;101969.03;4851505;29;45415;-81
2023/03/28 01:21:00;;;;;;;;;3.00;3.00;;;;;10.37;59.42;101959.81;4853920;29;45544;-81
2023/03/28 01:24:05;;;;;;;;;7.00;3.00;;;;;10.36;57.20;101965.97;4852714;29;46098;-82
2023/03/28 01:26:45;;;;;;;;;3.00;3.00;;;;;10.28;58.32;101954.16;4852708;29;45451;-81
2023/03/28 01:29:13;;;;;;;;;3.67;3.67;;;;;10.34;58.88;101965.03;4835282;29;45423;-82
2023/03/28 01:31:47;;;;;;;;;4.00;3.00;;;;;10.16;57.68;101958.19;4849809;29;45527;-81
2023/03/28 01:34:28;;;;;;;;;4.00;2.33;;;;;10.29;56.13;101948.88;4851740;29;45597;-81
2023/03/28 01:37:30;;;;;;;;;3.67;3.67;;;;;10.25;57.71;101938.09;4851823;29;45333;-82
2023/03/28 01:40:11;;;;;;;;;3.67;3.67;;;;;10.14;56.98;101937.69;4852372;29;45517;-81
2023/03/28 01:42:45;;;;;;;;;2.00;2.00;;;;;10.01;57.80;101920.44;4851819;29;45411;-81
2023/03/28 01:45:36;;;;;;;;;2.67;2.67;;;;;10.03;56.83;101916.06;4850570;29;45262;-82
2023/03/28 01:48:25;;;;;;;;;2.00;2.00;;;;;9.92;56.54;101912.16;4853038;29;45390;-82
2023/03/28 01:51:02;;;;;;;;;3.00;3.00;;;;;9.73;56.88;101911.47;4836106;29;44713;-82
2023/03/28 01:53:44;;;;;;;;;2.67;2.67;;;;;9.76;57.80;101910.69;4852746;29;45436;-82
2023/03/28 01:56:37;;;;;;;;;2.00;2.00;;;;;9.75;57.99;101891.16;4836257;29;47021;-82
2023/03/28 01:59:18;;;;;;;;;2.00;2.00;;;;;9.65;56.66;101906.72;4835894;29;45425;-81
2023/03/28 02:02:03;;;;;;;;;2.00;2.00;;;;;9.63;58.87;101906.66;4834593;29;45368;-81
2023/03/28 02:04:32;;;;;;;;;2.00;2.00;;;;;9.56;58.56;101918.81;4852115;29;45526;-82
2023/03/28 02:07:07;;;;;;;;;7.00;2.00;;;;;9.43;59.03;101905.94;4835444;29;46839;-81
2023/03/28 02:09:36;;;;;;;;;3.33;2.33;;;;;9.54;59.75;101909.00;4835119;29;45855;-80
2023/03/28 02:12:10;;;;;;;;;3.00;3.00;;;;;9.59;59.77;101920.69;4852681;29;45476;-81
2023/03/28 02:14:38;;;;;;;;;2.00;2.00;;;;;9.49;60.30;101908.81;4851987;29;45357;-80
2023/03/28 02:17:14;;;;;;;;;2.00;2.00;;;;;9.57;60.16;101907.38;4849788;29;46289;-80
2023/03/28 02:19:47;;;;;;;;;2.00;2.00;;;;;9.54;60.10;101901.94;4832270;29;45975;-81
2023/03/28 02:22:55;;;;;;;;;3.00;2.67;;;;;9.59;59.40;101905.69;4818512;29;45548;-81
2023/03/28 02:25:21;;;;;;;;;3.00;3.00;;;;;9.46;60.61;101905.16;4816207;29;45478;-81
2023/03/28 02:27:53;;;;;;;;;4.33;3.00;;;;;9.57;61.71;101895.81;4816034;29;47130;-80
2023/03/28 02:30:20;;;;;;;;;3.00;3.00;;;;;9.45;61.51;101896.25;4816383;29;45673;-81
2023/03/28 02:32:49;;;;;;;;;3.00;3.00;;;;;9.45;61.29;101895.38;4815628;29;45513;-81
2023/03/28 02:35:22;;;;;;;;;3.00;2.00;;;;;9.49;61.89;101890.22;4817215;29;45529;-80
2023/03/28 02:38:02;;;;;;;;;3.00;3.00;;;;;9.61;61.02;101874.75;4834600;29;45410;-80
2023/03/28 02:40:28;;;;;;;;;3.00;3.00;;;;;9.41;62.79;101879.34;4833392;29;45406;-81
2023/03/28 02:43:13;;;;;;;;;2.33;2.00;;;;;9.63;62.48;101872.13;4816685;29;45433;-81
2023/03/28 02:46:11;;;;;;;;;2.33;2.33;;;;;9.64;61.62;101863.34;4817769;29;45493;-83
2023/03/28 02:48:55;;;;;;;;;3.00;2.00;;;;;9.67;61.49;101862.53;4818040;29;48074;-82
2023/03/28 02:51:30;;;;;;;;;3.00;3.00;;;;;9.72;63.06;101864.50;4816842;29;45514;-82
2023/03/28 02:54:08;;;;;;;;;3.67;3.67;;;;;9.74;63.21;101853.94;4817089;29;45475;-82
2023/03/28 02:56:35;;;;;;;;;3.67;3.67;;;;;9.58;62.31;101852.50;4833197;29;45415;-82
2023/03/28 02:59:12;;;;;;;;;3.00;3.00;;;;;9.70;63.42;101847.63;4833982;29;46159;-82
2023/03/28 03:01:39;;;;;;;;;2.33;2.00;;;;;9.60;61.69;101849.03;4833435;29;45448;-82
2023/03/28 03:04:10;;;;;;;;;3.00;2.00;;;;;9.70;62.74;101830.78;4816480;29;45542;-82
2023/03/28 03:06:38;;;;;;;;;3.33;3.33;;;;;9.64;62.53;101841.19;4833211;29;45437;-82
2023/03/28 03:09:08;;;;;;;;;3.00;3.00;;;;;9.79;62.05;101834.63;4817859;29;47381;-82
2023/03/28 03:11:33;;;;;;;;;3.00;3.00;;;;;9.60;61.84;101833.09;4833763;29;45383;-82
2023/03/28 03:13:59;;;;;;;;;3.00;3.00;;;;;9.61;63.08;101826.03;4817844;29;45369;-81
2023/03/28 03:16:24;;;;;;;;;2.67;2.67;;;;;9.61;62.54;101831.34;4832673;29;45668;-81
2023/03/28 03:18:50;;;;;;;;;3.00;2.67;;;;;9.53;62.09;101823.13;4832661;29;46580;-82
2023/03/28 03:21:15;;;;;;;;;6.33;4.67;;;;;9.50;62.95;101816.78;4830095;29;45353;-80
2023/03/28 03:23:40;;;;;;;;;3.67;3.67;;;;;9.47;62.67;101812.25;4831540;29;45690;-80
2023/03/28 03:26:06;;;;;;;;;2.33;2.33;;;;;9.49;62.73;101809.66;4816476;29;45447;-80
2023/03/28 03:28:34;;;;;;;;;2.67;2.00;;;;;9.41;62.57;101802.34;4831610;29;45438;-80
2023/03/28 03:31:00;;;;;;;;;7.00;6.00;;;;;9.38;63.17;101791.59;4816296;29;45878;-81
2023/03/28 03:33:26;;;;;;;;;4.33;2.67;;;;;9.43;63.33;101799.72;4817173;29;45512;-81
2023/03/28 03:35:52;;;;;;;;;6.33;6.33;;;;;9.39;63.90;101798.72;4833057;29;45382;-80
2023/03/28 03:38:17;;;;;;;;;3.00;3.00;;;;;9.35;64.02;101794.16;4815139;29;47081;-81
2023/03/28 03:40:44;;;;;;;;;4.00;4.00;;;;;9.48;65.08;101781.31;4815117;29;45722;-80
2023/03/28 03:43:10;;;;;;;;;4.67;3.00;;;;;9.38;64.28;101794.25;4832392;29;45310;-81
2023/03/28 03:45:36;;;;;;;;;4.67;4.67;;;;;9.36;65.27;101793.28;4825323;29;45872;-81
2023/03/28 03:48:02;;;;;;;;;3.00;3.00;;;;;9.34;65.38;101802.97;4833471;29;48593;-80
2023/03/28 03:50:28;;;;;;;;;3.00;3.00;;;;;9.30;65.68;101797.50;4851492;29;45756;-81
2023/03/28 03:52:53;;;;;;;;;3.33;3.33;;;;;9.29;66.74;101801.91;4851028;29;45390;-81
2023/03/28 03:55:19;;;;;;;;;1.33;1.00;;;;;9.32;67.15;101802.00;4833756;29;45460;-81
2023/03/28 03:57:45;;;;;;;;;5.00;5.00;;;;;9.31;67.31;101804.59;4850148;29;45692;-81
2023/03/28 04:00:11;;;;;;;;;2.67;1.67;;;;;9.33;68.78;101805.56;4851981;29;45438;-82
2023/03/28 04:02:40;;;;;;;;;4.33;4.33;;;;;9.36;67.62;101793.28;4850927;29;45461;-80
2023/03/28 04:05:07;;;;;;;;;5.67;5.00;;;;;9.36;68.67;101801.25;4833619;29;45676;-81
2023/03/28 04:07:33;;;;;;;;;7.67;5.33;;;;;9.27;69.00;101798.28;4850478;29;46227;-80
2023/03/28 04:09:59;;;;;;;;;6.33;5.00;;;;;9.30;69.62;101800.16;4849698;29;45432;-82
2023/03/28 04:12:24;;;;;;;;;2.33;2.33;;;;;9.27;69.76;101792.97;4831924;29;45564;-82
2023/03/28 04:14:51;;;;;;;;;5.00;4.33;;;;;9.37;70.59;101788.88;4850320;29;45431;-82
2023/03/28 04:17:20;;;;;;;;;2.00;1.00;;;;;9.28;71.09;101788.56;4831807;29;47385;-82
2023/03/28 04:19:46;;;;;;;;;6.33;5.33;;;;;9.31;70.54;101793.97;4831652;29;45457;-82
2023/03/28 04:22:12;;;;;;;;;3.67;3.67;;;;;9.33;70.77;101793.22;4849287;29;45413;-81
2023/03/28 04:24:40;;;;;;;;;5.00;5.00;;;;;9.29;71.14;101791.28;4850349;29;45853;-81
2023/03/28 04:27:09;;;;;;;;;5.67;5.67;;;;;9.39;71.44;101776.56;4849868;29;45430;-81
2023/03/28 04:29:35;;;;;;;;;4.33;4.33;;;;;9.26;72.19;101777.00;4833858;29;45398;-82
2023/03/28 04:32:04;;;;;;;;;3.67;3.00;;;;;9.20;71.89;101775.91;4833677;29;45557;-81
2023/03/28 04:34:32;;;;;;;;;7.00;5.00;;;;;9.21;72.17;101788.34;4850070;29;45514;-81
2023/03/28 04:37:02;;;;;;;;;6.00;6.00;;;;;9.12;72.74;101771.19;4849099;29;45642;-81
2023/03/28 04:39:34;;;;;;;;;5.00;5.00;;;;;9.30;72.83;101785.13;4848309;29;44973;-81
2023/03/28 04:42:03;;;;;;;;;5.33;5.33;;;;;9.15;73.15;101785.47;4847451;29;45650;-81
2023/03/28 04:44:28;;;;;;;;;7.00;3.67;;;;;9.17;73.54;101785.50;4832493;29;45419;-81
2023/03/28 04:46:55;;;;;;;;;3.67;3.67;;;;;9.14;73.93;101781.00;4848677;29;47526;-82
2023/03/28 04:49:23;;;;;;;;;5.00;5.00;;;;;9.23;73.90;101788.41;4853396;29;45393;-81
2023/03/28 04:51:51;;;;;;;;;3.00;3.00;;;;;9.17;74.13;101781.13;4854000;29;45371;-81
2023/03/28 04:54:21;;;;;;;;;5.67;5.00;;;;;9.05;74.44;101790.38;4837141;29;44781;-82
2023/03/28 04:56:47;;;;;;;;;3.00;3.00;;;;;9.07;74.68;101783.34;4837103;29;46937;-81
2023/03/28 04:59:13;;;;;;;;;5.00;5.00;;;;;9.11;75.74;101787.94;4852922;29;45388;-82
2023/03/28 05:01:39;;;;;;;;;6.00;4.33;;;;;8.99;75.23;101785.75;4852585;29;45337;-82
2023/03/28 05:04:05;;;;;;;;;6.00;2.67;;;;;9.04;76.17;101788.56;4850909;29;45352;-82
2023/03/28 05:06:30;;;;;;;;;8.00;6.00;;;;;9.00;76.23;101792.84;4852480;29;46069;-82
2023/03/28 05:08:56;;;;;;;;;6.00;6.00;;;;;9.02;76.55;101797.38;4853214;29;45412;-81
2023/03/28 05:11:22;;;;;;;;;5.67;5.67;;;;;8.98;76.93;101790.13;4852303;29;46078;-82
2023/03/28 05:13:48;;;;;;;;;5.33;5.00;;;;;8.89;77.30;101789.81;4838986;29;45651;-82
2023/03/28 05:16:14;;;;;;;;;7.00;5.00;;;;;8.87;78.04;101791.50;4852738;29;47391;-82
2023/03/28 05:18:40;;;;;;;;;3.00;3.00;;;;;8.84;77.91;101799.31;4852791;29;45521;-81
2023/03/28 05:21:06;;;;;;;;;7.00;6.33;;;;;8.92;79.11;101789.00;4853927;29;45746;-81
2023/03/28 05:23:32;;;;;;;;;8.33;6.67;;;;;8.79;79.17;101791.22;4853581;29;45372;-81
2023/03/28 05:26:01;;;;;;;;;6.00;5.00;;;;;8.78;79.35;101793.78;4853025;29;45408;-81
2023/03/28 05:28:27;;;;;;;;;8.33;7.67;;;;;8.76;79.97;101792.81;4852895;29;45594;-81
2023/03/28 05:30:53;;;;;;;;;9.33;6.67;;;;;8.73;80.08;101790.06;4852372;29;45453;-81
2023/03/28 05:33:19;;;;;;;;;8.33;6.33;;;;;8.72;80.92;101798.88;4853195;29;45468;-81
2023/03/28 05:35:45;;;;;;;;;5.67;5.67;;;;;8.64;81.07;101793.25;4836093;29;48541;-82
2023/03/28 05:38:10;;;;;;;;;5.67;5.67;;;;;8.67;81.77;101795.16;4835651;29;45424;-82
2023/03/28 05:40:36;;;;;;;;;7.33;7.33;;;;;8.69;81.87;101799.66;4835653;29;45773;-79
2023/03/28 05:43:02;;;;;;;;;11.00;7.00;;;;;8.65;81.74;101794.19;4852441;29;45422;-81
2023/03/28 05:45:27;;;;;;;;;9.67;7.33;;;;;8.66;82.08;101802.16;4835751;29;46941;-81
2023/03/28 05:47:54;;;;;;;;;8.33;8.00;;;;;8.68;82.16;101797.81;4835622;29;45308;-81
2023/03/28 05:50:20;;;;;;;;;11.00;10.00;;;;;8.65;nan;101789.78;4837872;29;45379;-81
2023/03/28 05:52:46;;;;;;;;;7.33;7.33;;;;;8.71;82.78;101789.13;4851267;29;45514;-81
2023/03/28 05:55:11;;;;;;;;;8.00;8.00;;;;;8.76;82.74;101798.13;4834771;29;46211;-81
2023/03/28 05:57:39;;;;;;;;;6.00;6.00;;;;;8.86;82.52;101787.03;4853897;29;45466;-81
2023/03/28 06:00:11;;;;;;;;;8.00;7.33;;;;;8.89;82.40;101796.88;4836065;29;45416;-81
2023/03/28 06:02:39;;;;;;;;;7.00;7.00;;;;;8.81;82.17;101793.91;4836958;29;45484;-81
2023/03/28 06:05:06;;;;;;;;;7.33;7.33;;;;;8.80;82.59;101785.03;4835922;29;47460;-81
2023/03/28 06:07:32;;;;;;;;;8.67;7.00;;;;;8.76;82.23;101792.81;4834695;29;45656;-81
2023/03/28 06:10:35;;;;;;;;;8.33;7.00;;;;;9.00;82.00;101801.72;4835465;29;45365;-81
2023/03/28 06:13:32;;;;;;;;;9.67;9.67;;;;;8.84;82.99;101812.59;4855367;29;45420;-83
2023/03/28 06:16:41;;;;;;;;;0.00;0.00;;;;;8.91;82.86;101801.38;4856419;29;45930;-81
2023/03/28 06:19:17;;;;;;;;;7.00;7.00;;;;;8.86;82.38;101797.63;4837544;29;45494;-81
2023/03/28 06:22:30;;;;;;;;;10.33;6.67;;;;;9.07;82.15;101809.91;4827073;29;45513;-81
2023/03/28 06:25:12;;;;;;;;;12.00;10.00;;;;;8.91;83.15;101788.13;4778272;29;45472;-80
2023/03/28 06:27:41;;;;;;;;;8.67;7.00;;;;;8.94;82.73;101792.63;4775625;29;47145;-80
2023/03/28 06:30:07;;;;;;;;;9.00;9.00;;;;;8.90;82.46;101799.56;4760813;29;45499;-81
2023/03/28 06:32:33;;;;;;;;;9.00;5.00;;;;;8.84;83.04;101786.06;4776031;29;45533;-82
2023/03/28 06:34:58;;;;;;;;;7.00;7.00;;;;;9.07;82.14;101815.22;4776494;29;45391;-80
2023/03/28 06:37:24;;;;;;;;;10.00;8.67;;;;;9.05;81.97;101807.22;4776474;29;45494;-80
2023/03/28 06:39:51;;;;;;;;;7.33;6.33;;;;;9.10;82.22;101823.28;4763563;29;45438;-80
2023/03/28 06:43:10;;;;;;;;;10.33;9.33;;;;;9.34;82.21;101810.03;4777467;29;45485;-83
2023/03/28 06:45:35;;;;;;;;;7.33;7.33;;;;;9.15;81.70;101819.03;4779473;29;45878;-80
2023/03/28 06:48:07;;;;;;;;;10.33;10.33;;;;;9.27;82.16;101807.97;4777242;29;47409;-81
2023/03/28 06:50:32;;;;;;;;;6.33;6.33;;;;;9.12;82.04;101811.88;4777067;29;45372;-80
2023/03/28 06:52:58;;;;;;;;;10.00;10.00;;;;;9.15;82.53;101809.34;4762263;29;45301;-81
2023/03/28 06:55:26;;;;;;;;;9.33;9.33;;;;;9.14;81.68;101794.25;4780706;29;45426;-81
2023/03/28 06:57:52;;;;;;;;;11.00;8.67;;;;;9.21;82.38;101804.28;4801358;29;45964;-81
2023/03/28 07:00:18;;;;;;;;;8.00;8.00;;;;;9.18;81.72;101790.88;4789738;29;45636;-81
2023/03/28 07:02:46;;;;;;;;;13.33;12.00;;;;;9.30;82.21;101785.13;4837080;29;45524;-82
2023/03/28 07:05:11;;;;;;;;;10.67;10.00;;;;;9.21;82.60;101790.09;4829149;29;45374;-82
2023/03/28 07:07:37;;;;;;;;;14.33;9.67;;;;;9.26;82.38;101785.84;4851709;29;47213;-81
2023/03/28 07:10:03;;;;;;;;;7.33;7.33;;;;;9.33;82.68;101779.00;4822323;29;45939;-81
2023/03/28 07:12:30;;;;;;;;;7.67;6.67;;;;;9.44;81.69;101769.69;4831999;29;44815;-81
2023/03/28 07:14:56;;;;;;;;;9.67;7.33;;;;;9.41;79.92;101765.19;4841589;29;45386;-82
2023/03/28 07:17:24;;;;;;;;;10.33;10.33;;;;;9.55;80.93;101765.66;4843740;29;47005;-80
2023/03/28 07:20:01;;;;;;;;;11.67;11.67;;;;;9.64;80.16;101754.44;4829008;29;45654;-82
2023/03/28 07:22:30;;;;;;;;;8.67;7.67;;;;;9.69;80.83;101768.75;4840084;29;45408;-80
2023/03/28 07:28:17;;;;;;;;;10.00;9.33;;;;;9.70;79.77;101782.97;4843145;29;45439;-81
2023/03/28 07:30:46;;;;;;;;;12.33;10.33;;;;;9.84;79.79;101770.13;4836602;29;45317;-82
2023/03/28 07:33:11;;;;;;;;;12.00;10.00;;;;;9.77;79.11;101759.28;4845159;29;45406;-82
2023/03/28 07:35:51;;;;;;;;;13.00;12.00;;;;;10.25;80.23;101791.88;4844137;29;45188;-81
2023/03/28 07:38:20;;;;;;;;;10.00;10.00;;;;;10.33;79.41;101793.06;4848063;29;46926;-82
2023/03/28 07:44:35;;;;;;;;;11.67;11.67;;;;;10.26;77.32;101761.75;4846337;29;45496;-81
2023/03/28 07:47:10;;;;;;;;;11.00;8.33;;;;;10.59;75.23;101786.78;4845874;29;44903;-81
2023/03/28 07:50:03;;;;;;;;;13.00;10.67;;;;;10.47;76.20;101774.88;4827202;29;45504;-81
2023/03/28 07:52:28;;;;;;;;;11.00;8.67;;;;;10.49;74.74;101776.72;4839042;29;45651;-81
2023/03/28 07:54:57;;;;;;;;;9.67;9.67;;;;;10.77;74.96;101788.22;4851406;29;45499;-81
2023/03/28 07:57:26;;;;;;;;;12.00;9.00;;;;;10.79;73.31;101799.81;4838612;29;44926;-81
2023/03/28 07:59:52;;;;;;;;;9.67;9.67;;;;;10.58;73.03;101769.03;4821150;29;46698;-81
2023/03/28 08:02:18;;;;;;;;;14.33;12.33;;;;;10.75;72.60;101774.84;4855285;29;45441;-79
2023/03/28 08:04:55;;;;;;;;;12.00;9.67;;;;;11.10;72.96;101790.94;4834626;29;45572;-79
2023/03/28 08:08:05;;;;;;;;;11.67;11.67;;;;;11.21;71.50;101794.84;4832662;29;45737;-80
2023/03/28 08:10:37;;;;;;;;;11.00;9.33;;;;;11.26;69.67;101786.97;4830006;29;46931;-80
2023/03/28 08:13:05;;;;;;;;;10.33;10.33;;;;;11.16;70.22;101784.91;4834576;29;45229;-80
2023/03/28 08:15:40;;;;;;;;;9.00;9.00;;;;;11.31;68.91;101789.75;4834552;29;45447;-81
2023/03/28 08:18:16;;;;;;;;;9.67;8.00;;;;;11.38;71.76;101787.31;4822295;29;45684;-80
2023/03/28 08:24:10;;;;;;;;;12.67;12.67;;;;;11.81;66.97;101785.81;4860090;29;44663;-79
2023/03/28 08:26:47;;;;;;;;;11.67;11.67;;;;;11.91;65.93;101783.38;4866543;29;45899;-79
2023/03/28 08:29:25;;;;;;;;;13.33;12.33;;;;;11.90;66.69;101757.59;4859451;29;45639;-79
2023/03/28 08:31:53;;;;;;;;;12.67;12.67;;;;;11.76;62.32;101757.22;4855966;29;45416;-81
2023/03/28 08:34:29;;;;;;;;;13.00;9.00;;;;;12.08;61.92;101783.78;4825480;29;45380;-80
2023/03/28 08:37:08;;;;;;;;;9.00;8.00;;;;;11.94;65.23;101762.16;4838361;29;45526;-82
2023/03/28 08:39:36;;;;;;;;;9.00;9.00;;;;;11.96;63.76;101765.75;4846037;29;45203;-82
2023/03/28 08:42:34;;;;;;;;;;;;;;;;;;;;;
2023/03/28 08:45:26;;;;;;;;;8.33;8.33;;;;;12.29;58.44;101752.31;4840387;29;72846;-81
2023/03/28 08:48:09;;;;;;;;;7.00;6.00;;;;;12.44;59.44;101783.78;4838751;29;45445;-80
2023/03/28 08:51:15;;;;;;;;;;;;;;;;;;;;;
2023/03/28 08:54:11;;;;;;;;;11.33;9.67;;;;;12.46;60.31;101752.69;4828033;29;74783;-80
2023/03/28 08:56:52;;;;;;;;;6.00;4.00;;;;;12.48;58.37;101739.38;4757107;29;45502;-82
2023/03/28 08:59:45;;;;;;;;;7.33;7.33;;;;;12.78;58.15;101776.53;4744228;29;45455;-80
2023/03/28 09:02:23;;;;;;;;;7.33;7.33;;;;;12.85;59.75;101761.56;4742134;29;45579;-80
2023/03/28 09:04:50;;;;;;;;;6.67;6.67;;;;;12.84;62.79;101739.28;4744493;29;47651;-81
2023/03/28 09:07:54;;;;;;;;;8.00;7.00;;;;;13.24;56.73;101761.44;4744986;29;45443;-81
2023/03/28 09:10:41;;;;;;;;;10.00;7.00;;;;;13.13;59.57;101731.88;4755620;29;45329;-81
2023/03/28 09:13:16;;;;;;;;;6.00;6.00;;;;;13.25;58.74;101751.66;4752561;29;45435;-80
2023/03/28 09:16:22;;;;;;;;;4.00;4.00;;;;;13.60;57.98;101755.03;4746487;29;47924;-81
2023/03/28 09:19:29;;;;;;;;;10.33;9.33;;;;;13.74;60.47;101752.59;4746805;29;45776;-79
2023/03/28 09:25:59;;;;;;;;;7.33;7.33;;;;;13.99;54.88;101746.78;4770549;29;45452;-81
2023/03/28 09:32:39;;;;;;;;;5.00;5.00;;;;;14.11;53.42;101745.19;4760658;29;45370;-81
2023/03/28 09:35:18;;;;;;;;;6.33;6.33;;;;;14.04;57.05;101738.84;4803563;29;45940;-81
2023/03/28 09:38:23;;;;;;;;;7.33;7.00;;;;;13.97;55.19;101688.78;4794830;29;45719;-82
2023/03/28 09:41:00;;;;;;;;;4.00;4.00;;;;;14.05;53.80;101711.19;4790381;29;46438;-82
2023/03/28 09:44:07;;;;;;;;;5.00;5.00;;;;;14.09;54.13;101701.47;4766141;29;45512;-81
2023/03/28 09:46:56;;;;;;;;;6.33;4.67;;;;;14.02;53.54;101687.09;4792096;29;45820;-81
2023/03/28 09:49:41;;;;;;;;;3.00;3.00;;;;;14.13;48.96;101687.25;4794748;29;45449;-81
2023/03/28 09:52:20;;;;;;;;;4.00;4.00;;;;;14.27;50.04;101695.47;4774528;29;46442;-81
2023/03/28 09:55:02;;;;;;;;;;;;;;;;;;;;;
2023/03/28 09:58:07;;;;;;;;;7.67;7.00;;;;;14.51;52.67;101701.16;4784051;29;68731;-81
2023/03/28 10:00:57;;;;;;;;;7.33;7.00;;;;;14.78;53.80;101703.34;4779993;29;45814;-81
2023/03/28 10:03:34;;;;;;;;;5.67;5.00;;;;;14.91;53.68;101674.91;4739887;30;47538;-80
2023/03/28 10:06:21;;;;;;;;;5.00;5.00;;;;;14.95;52.79;101655.31;4739734;30;45943;-79
2023/03/28 10:19:48;;;;;;;;;4.33;3.00;;;;;14.67;47.02;101642.50;4747951;29;45494;-82
2023/03/28 10:22:25;;;;;;;;;2.00;2.00;;;;;14.71;48.06;101665.75;4741846;29;45517;-82
2023/03/28 10:24:53;;;;;;;;;8.67;5.33;;;;;14.60;45.91;101671.88;4746024;29;45589;-81
2023/03/28 10:27:36;;;;;;;;;8.00;8.00;;;;;14.71;47.29;101663.09;4744859;29;46903;-80
2023/03/28 10:33:45;;;;;;;;;4.00;4.00;;;;;15.00;48.75;101661.59;4728334;29;45510;-82
2023/03/28 10:36:33;;;;;;;;;8.67;8.67;;;;;14.88;49.03;101623.97;4725007;30;45390;-81
2023/03/28 10:39:23;;;;;;;;;4.67;3.00;;;;;14.95;47.17;101639.25;4727139;30;46127;-80
2023/03/28 10:42:10;;;;;;;;;3.00;3.00;;;;;15.07;49.06;101648.28;4765568;29;44926;-80
2023/03/28 10:45:38;;;;;;;;;7.33;5.00;;;;;15.29;50.47;101669.06;4778441;29;44915;-82
2023/03/28 10:48:32;;;;;;;;;5.00;5.00;;;;;15.31;50.70;101631.53;4728912;30;45443;-83
2023/03/28 10:51:52;;;;;;;;;4.33;4.33;;;;;15.56;50.68;101635.34;4709735;30;46100;-79
2023/03/28 10:54:52;;;;;;;;;4.67;4.00;;;;;15.39;48.36;101644.13;4715570;29;45163;-81
2023/03/28 10:57:42;;;;;;;;;7.33;6.67;;;;;15.18;48.05;101638.56;4713734;30;45027;-81
2023/03/28 11:00:13;;;;;;;;;5.00;5.00;;;;;15.24;47.80;101641.31;4709729;30;44994;-80
2023/03/28 11:07:30;;;;;;;;;;;;;;;;;;;;;
2023/03/28 11:13:45;;;;;;;;;1.00;1.00;;;;;15.52;45.95;101628.16;4657754;30;45244;-80
2023/03/28 11:20:16;;;;;;;;;7.00;5.00;;;;;15.27;47.60;101603.81;4724319;30;45440;-82
2023/03/28 11:23:19;;;;;;;;;2.67;2.67;;;;;15.25;49.94;101610.97;4722484;30;45358;-80
2023/03/28 11:26:07;;;;;;;;;8.00;6.33;;;;;15.72;48.16;101621.19;4714968;30;45355;-81
2023/03/28 11:29:18;;;;;;;;;4.00;4.00;;;;;15.73;46.91;101611.34;4763558;29;46621;-83
2023/03/28 11:32:15;;;;;;;;;4.33;4.33;;;;;15.55;46.10;101599.59;4784126;29;45452;-82
2023/03/28 11:35:38;;;;;;;;;4.00;4.00;;;;;15.12;44.40;101568.84;4764527;29;45522;-82
2023/03/28 11:38:46;;;;;;;;;3.33;3.00;;;;;15.11;44.24;101601.91;4746393;29;45409;-83
2023/03/28 11:44:42;;;;;;;;;3.67;3.67;;;;;14.98;47.52;101591.03;4769067;29;45463;-81
2023/03/28 11:47:48;;;;;;;;;7.00;6.00;;;;;15.24;48.85;101584.13;4768741;29;45504;-84
2023/03/28 11:51:18;;;;;;;;;3.67;3.67;;;;;15.48;47.39;101548.59;4834403;29;45437;-85
2023/03/28 11:59:58;;;;;;;;;4.00;4.00;;;;;15.80;43.99;101541.66;1171372;26;46006;-82
2023/03/28 12:02:42;;;;;;;;;6.33;5.00;;;;;15.59;45.18;101509.31;4875430;29;45354;-81
2023/03/28 12:05:34;;;;;;;;;9.33;6.00;;;;;15.60;45.21;101500.41;4879739;29;46282;-83
2023/03/28 12:08:40;;;;;;;;;6.67;6.67;;;;;16.09;47.83;101532.84;4877870;29;45807;-81
2023/03/28 12:25:19;;;;;;;;;3.00;3.00;;;;;16.86;44.15;101495.44;4872577;29;45416;-81
2023/03/28 12:28:02;;;;;;;;;4.33;4.33;;;;;16.68;46.99;101487.34;4846593;29;45644;-82
2023/03/28 12:31:04;;;;;;;;;4.67;4.00;;;;;16.89;46.45;101522.34;4886151;29;45554;-82
2023/03/28 12:34:09;;;;;;;;;4.00;4.00;;;;;16.95;48.27;101516.06;4868157;29;45585;-81
2023/03/28 12:47:10;;;;;;;;;5.67;4.67;;;;;17.16;45.34;101486.47;4880349;29;45931;-82
2023/03/28 12:49:53;;;;;;;;;3.00;2.00;;;;;16.72;45.34;101478.41;4857387;29;45931;-83
2023/03/28 12:52:44;;;;;;;;;4.67;4.67;;;;;16.40;46.51;101473.88;4877104;29;45641;-81
2023/03/28 12:55:30;;;;;;;;;4.00;3.00;;;;;16.23;44.04;101484.59;4848126;29;48204;-83
2023/03/28 12:58:33;;;;;;;;;4.33;4.00;;;;;15.98;46.56;101489.00;4865462;29;44844;-83
2023/03/28 13:01:08;;;;;;;;;6.00;4.33;;;;;15.88;45.48;101485.38;4839598;29;45388;-81
2023/03/28 13:03:45;;;;;;;;;5.00;5.00;;;;;15.70;45.90;101486.16;4873635;29;45391;-80
2023/03/28 13:06:38;;;;;;;;;4.33;3.00;;;;;15.47;46.51;101458.31;4870350;29;46750;-82
2023/03/28 13:09:55;;;;;;;;;5.00;3.67;;;;;15.47;48.23;101472.63;4876608;29;45586;-82
2023/03/28 13:13:08;;;;;;;;;3.00;3.00;;;;;15.44;46.26;101475.28;4863014;29;45462;-82
2023/03/28 13:19:13;;;;;;;;;4.00;4.00;;;;;14.75;46.50;101434.63;4809420;29;45936;-85
2023/03/28 13:21:50;;;;;;;;;4.33;4.33;;;;;14.84;49.01;101474.84;4802591;29;44923;-82
2023/03/28 13:25:05;;;;;;;;;3.00;3.00;;;;;15.05;48.94;101478.59;4804939;29;45659;-84
2023/03/28 13:27:52;;;;;;;;;4.00;4.00;;;;;14.90;51.38;101460.63;4792808;29;46599;-81
2023/03/28 13:30:31;;;;;;;;;4.33;3.67;;;;;15.08;50.59;101446.47;4805139;29;46296;-83
2023/03/28 13:33:24;;;;;;;;;4.67;4.67;;;;;15.20;51.52;101446.56;4783306;29;44836;-81
2023/03/28 13:36:02;;;;;;;;;4.33;4.33;;;;;15.45;52.11;101466.38;4797452;29;44833;-81
2023/03/28 13:38:27;;;;;;;;;5.33;5.33;;;;;15.35;51.71;101457.38;4784670;29;44913;-81
2023/03/28 13:41:01;;;;;;;;;3.67;3.67;;;;;15.40;52.26;101420.75;4797563;29;48418;-82